Time;durP1;ratioP1;P1;durP2;ratioP2;P2;SDS_P1;SDS_P2;PMS_P1;PMS_P2;Temp;Humidity;BMP_temperature;BMP_pressure;BME280_temperature;BME280_humidity;BME280_pressure;Samples;Min_cycle;Max_cycle;Signal;HPM_P1;HPM_P2
2024/03/01 00:03:00;;;;;;;4.07;3.60;;;17.00;99.90;;;;;;10527376;28;20052;-55
2024/03/01 00:08:02;;;;;;;4.37;3.97;;;17.00;99.90;;;;;;10530430;28;20050;-56
2024/03/01 00:13:06;;;;;;;5.15;3.58;;;16.60;99.90;;;;;;10527247;28;20051;-58
2024/03/01 00:18:08;;;;;;;4.75;3.35;;;16.80;99.90;;;;;;10529344;28;20047;-54
2024/03/01 00:23:09;;;;;;;4.77;3.20;;;16.90;99.90;;;;;;10524912;28;20063;-52
2024/03/01 00:28:13;;;;;;;4.60;3.50;;;16.90;99.90;;;;;;10531045;28;20535;-57
2024/03/01 00:33:15;;;;;;;5.88;3.90;;;16.80;99.90;;;;;;10536362;28;20059;-57
2024/03/01 00:38:17;;;;;;;5.55;3.83;;;16.30;99.90;;;;;;10530897;28;20146;-57
2024/03/01 00:43:21;;;;;;;5.97;3.80;;;16.40;99.90;;;;;;10537299;28;20048;-56
2024/03/01 00:48:25;;;;;;;4.07;3.58;;;16.80;99.90;;;;;;10538220;28;20044;-57
2024/03/01 00:53:27;;;;;;;3.25;2.67;;;16.70;99.90;;;;;;10539426;28;20413;-55
2024/03/01 00:58:30;;;;;;;5.45;3.88;;;17.00;99.90;;;;;;10537081;28;20411;-55
2024/03/01 01:03:32;;;;;;;4.75;3.33;;;16.80;99.90;;;;;;10538676;27;20894;-56
2024/03/01 01:08:37;;;;;;;6.40;3.10;;;16.60;99.90;;;;;;10539008;28;20044;-55
2024/03/01 01:13:40;;;;;;;4.38;2.78;;;16.90;99.90;;;;;;10537537;28;20051;-56
2024/03/01 01:18:42;;;;;;;4.35;3.28;;;17.00;99.90;;;;;;10541456;28;20052;-57
2024/03/01 01:23:44;;;;;;;3.27;2.63;;;17.00;99.90;;;;;;10542056;28;20422;-55
2024/03/01 01:28:51;;;;;;;5.95;2.63;;;17.10;99.90;;;;;;10531644;28;20040;-55
2024/03/01 01:33:53;;;;;;;5.00;4.45;;;17.10;99.90;;;;;;10535075;28;20074;-55
2024/03/01 01:38:55;;;;;;;10.50;4.07;;;14.20;99.90;;;;;;10535324;28;20513;-56
2024/03/01 01:44:00;;;;;;;8.70;4.67;;;11.80;99.90;;;;;;10537884;28;20051;-56
2024/03/01 01:49:02;;;;;;;24.42;3.20;;;10.40;99.90;;;;;;10540907;28;20136;-54
2024/03/01 01:54:04;;;;;;;20.53;3.27;;;9.80;99.90;;;;;;10536194;28;20841;-55
2024/03/01 01:59:08;;;;;;;14.23;1.23;;;8.80;99.90;;;;;;10531705;28;20158;-54
2024/03/01 02:04:10;;;;;;;9.35;1.42;;;8.60;99.90;;;;;;10537260;28;20043;-56
2024/03/01 02:09:18;;;;;;;10.15;0.98;;;8.60;99.90;;;;;;10531243;28;20446;-55
2024/03/01 02:14:22;;;;;;;0.20;0.20;;;8.10;99.90;;;;;;10531954;28;20044;-55
2024/03/01 02:19:24;;;;;;;0.20;0.20;;;8.20;99.90;;;;;;10529132;28;20054;-56
2024/03/01 02:24:28;;;;;;;0.10;0.10;;;8.20;99.90;;;;;;10535585;28;20051;-55
2024/03/01 02:29:30;;;;;;;0.20;0.20;;;8.30;99.90;;;;;;10535383;28;20055;-55
2024/03/01 02:34:32;;;;;;;0.20;0.20;;;8.60;99.90;;;;;;10532790;28;20056;-54
2024/03/01 02:39:35;;;;;;;0.20;0.20;;;8.60;99.90;;;;;;10533365;28;20113;-55
2024/03/01 02:44:37;;;;;;;0.13;0.13;;;8.10;99.90;;;;;;10530654;28;20143;-56
2024/03/01 02:49:41;;;;;;;0.10;0.10;;;8.10;99.90;;;;;;10534149;28;20040;-56
2024/03/01 02:54:45;;;;;;;0.73;0.73;;;7.90;99.90;;;;;;10532471;28;20055;-54
2024/03/01 02:59:47;;;;;;;;;;;8.00;99.90;;;;;;10539023;28;20554;-58
2024/03/01 03:04:49;;;;;;;0.17;0.17;;;7.70;99.90;;;;;;10540436;28;20295;-54
2024/03/01 03:09:52;;;;;;;0.10;0.10;;;7.50;99.90;;;;;;10533581;28;20395;-51
2024/03/01 03:14:54;;;;;;;0.10;0.10;;;8.10;99.90;;;;;;10531167;28;20553;-53
2024/03/01 03:19:56;;;;;;;0.17;0.17;;;8.90;99.90;;;;;;10535456;28;20051;-55
2024/03/01 03:24:59;;;;;;;0.20;0.20;;;8.60;99.90;;;;;;10530168;28;20743;-56
2024/03/01 03:30:02;;;;;;;0.20;0.20;;;9.70;99.90;;;;;;10534974;28;20061;-52
2024/03/01 03:35:04;;;;;;;0.20;0.20;;;8.70;99.90;;;;;;10532112;28;20136;-55
2024/03/01 03:40:14;;;;;;;0.10;0.10;;;8.70;99.90;;;;;;10520286;28;21532;-52
2024/03/01 03:45:16;;;;;;;0.20;0.20;;;9.10;99.90;;;;;;10529831;28;20055;-55
2024/03/01 03:50:18;;;;;;;0.10;0.10;;;9.40;99.90;;;;;;10532122;28;20134;-55
2024/03/01 03:55:22;;;;;;;0.17;0.17;;;8.10;99.90;;;;;;10530402;28;20043;-52
2024/03/01 04:15:33;;;;;;;0.30;0.30;;;7.70;99.90;;;;;;10541220;27;20118;-56
2024/03/01 04:20:40;;;;;;;1.15;1.15;;;8.20;99.90;;;;;;10551560;28;20506;-55
2024/03/01 04:25:42;;;;;;;0.15;0.15;;;8.00;99.90;;;;;;10556834;28;20464;-55
2024/03/01 04:30:46;;;;;;;2.50;1.75;;;8.00;99.90;;;;;;10552975;28;20416;-58
2024/03/01 04:35:48;;;;;;;0.52;0.52;;;9.70;99.90;;;;;;10552959;28;20126;-54
2024/03/01 04:40:50;;;;;;;0.57;0.57;;;9.60;99.90;;;;;;10554342;28;20059;-56
2024/03/01 04:45:53;;;;;;;0.20;0.20;;;9.70;99.90;;;;;;10560451;28;20058;-55
2024/03/01 04:50:55;;;;;;;0.10;0.10;;;10.70;99.90;;;;;;10546189;28;20044;-57
2024/03/01 04:55:57;;;;;;;0.20;0.20;;;9.80;99.90;;;;;;10553246;28;20048;-54
2024/03/01 05:01:02;;;;;;;0.10;0.10;;;8.40;99.90;;;;;;10558690;28;20055;-57
2024/03/01 05:06:04;;;;;;;0.30;0.30;;;9.00;99.90;;;;;;10554634;28;20078;-54
2024/03/01 05:11:06;;;;;;;0.10;0.10;;;9.30;99.90;;;;;;10557074;28;20162;-55
2024/03/01 05:16:09;;;;;;;0.20;0.20;;;10.10;99.90;;;;;;10549581;28;20063;-57
2024/03/01 05:21:11;;;;;;;0.32;0.32;;;10.20;99.90;;;;;;10550144;28;20039;-54
2024/03/01 05:26:13;;;;;;;0.10;0.10;;;11.90;99.90;;;;;;10524233;28;20642;-55
2024/03/01 05:31:18;;;;;;;0.85;0.85;;;11.60;99.90;;;;;;10519733;28;20234;-56
2024/03/01 05:36:20;;;;;;;0.10;0.10;;;11.60;99.90;;;;;;10514357;28;20130;-53
2024/03/01 05:41:22;;;;;;;0.25;0.25;;;13.00;99.90;;;;;;10515798;28;20111;-55
2024/03/01 05:46:26;;;;;;;5.00;1.10;;;12.90;99.90;;;;;;10508394;28;20118;-55
2024/03/01 05:51:28;;;;;;;0.30;0.30;;;12.10;99.90;;;;;;10518960;28;20072;-57
2024/03/01 05:56:29;;;;;;;0.10;0.10;;;11.70;99.90;;;;;;10513864;28;20290;-55
2024/03/01 06:01:33;;;;;;;0.55;0.55;;;13.10;99.90;;;;;;10520452;28;20041;-53
2024/03/01 06:06:35;;;;;;;0.85;0.85;;;13.80;99.90;;;;;;10515110;28;20055;-57
2024/03/01 06:11:37;;;;;;;2.70;1.50;;;14.20;99.90;;;;;;10516735;28;20503;-56
2024/03/01 06:16:40;;;;;;;0.67;0.67;;;14.70;99.90;;;;;;10507587;28;20052;-56
2024/03/01 06:21:42;;;;;;;0.75;0.63;;;14.70;99.90;;;;;;10510119;28;20048;-57
2024/03/01 06:26:44;;;;;;;0.10;0.10;;;14.90;99.90;;;;;;10506917;28;20691;-56
2024/03/01 06:31:48;;;;;;;1.20;0.90;;;15.10;99.90;;;;;;10502583;28;20384;-55
2024/03/01 06:36:51;;;;;;;3.95;1.25;;;15.20;99.90;;;;;;10501767;28;20063;-59
2024/03/01 06:41:53;;;;;;;2.10;0.98;;;15.30;99.90;;;;;;10504574;28;20170;-62
2024/03/01 06:46:56;;;;;;;0.00;0.00;;;15.40;99.90;;;;;;10506268;28;20043;-56
2024/03/01 06:51:58;;;;;;;0.30;0.30;;;15.60;99.90;;;;;;10510219;28;20410;-58
2024/03/01 06:57:00;;;;;;;0.00;0.00;;;15.70;99.90;;;;;;10502664;28;20047;-57
2024/03/01 07:02:04;;;;;;;0.10;0.10;;;15.80;99.90;;;;;;10507662;28;20048;-55
2024/03/01 07:07:07;;;;;;;0.30;0.30;;;16.20;99.90;;;;;;10503185;28;20040;-56
2024/03/01 07:12:10;;;;;;;0.10;0.10;;;16.20;99.90;;;;;;10498870;28;20052;-56
2024/03/01 07:17:13;;;;;;;0.82;0.75;;;16.30;99.90;;;;;;10500245;28;20047;-56
2024/03/01 07:22:15;;;;;;;0.10;0.10;;;16.30;99.90;;;;;;10500883;28;20052;-53
2024/03/01 07:27:17;;;;;;;0.00;0.00;;;15.90;99.90;;;;;;10505666;28;20149;-57
2024/03/01 07:32:20;;;;;;;0.03;0.03;;;16.00;99.90;;;;;;10505752;28;20055;-56
2024/03/01 07:37:22;;;;;;;0.10;0.10;;;16.10;99.90;;;;;;10505936;28;20993;-56
2024/03/01 07:42:24;;;;;;;0.10;0.10;;;16.20;99.90;;;;;;10500570;28;20040;-58
2024/03/01 07:47:29;;;;;;;0.13;0.13;;;16.30;99.90;;;;;;10506407;28;20078;-55
2024/03/01 07:52:31;;;;;;;0.00;0.00;;;16.20;99.90;;;;;;10516225;28;20067;-55
2024/03/01 07:57:33;;;;;;;0.10;0.10;;;16.30;99.90;;;;;;10499139;28;20553;-56
2024/03/01 08:02:37;;;;;;;0.10;0.10;;;16.10;99.90;;;;;;10507965;28;20043;-57
2024/03/01 08:07:39;;;;;;;0.10;0.10;;;16.40;99.90;;;;;;10504921;28;20056;-55
2024/03/01 08:12:42;;;;;;;0.00;0.00;;;16.10;99.90;;;;;;10499395;28;20061;-56
2024/03/01 08:17:45;;;;;;;0.17;0.17;;;16.60;99.90;;;;;;10505808;28;20554;-56
2024/03/01 08:22:52;;;;;;;0.10;0.10;;;16.50;99.90;;;;;;10498370;28;20119;-55
2024/03/01 08:27:58;;;;;;;0.50;0.50;;;16.10;99.90;;;;;;10504812;28;20052;-58
2024/03/01 08:33:02;;;;;;;0.57;0.57;;;16.50;99.90;;;;;;10507587;28;20192;-56
2024/03/01 08:38:26;;;;;;;0.10;0.10;;;16.40;99.90;;;;;;10495011;28;20684;-57
2024/03/01 08:43:28;;;;;;;0.10;0.10;;;15.80;99.90;;;;;;10494251;28;20127;-57
2024/03/01 08:48:33;;;;;;;0.30;0.30;;;15.50;99.90;;;;;;10512680;28;20063;-56
2024/03/01 08:53:58;;;;;;;0.10;0.10;;;15.70;99.90;;;;;;10497504;28;20987;-53
2024/03/01 08:59:02;;;;;;;0.10;0.10;;;16.10;99.90;;;;;;10504027;28;20151;-56
2024/03/01 09:04:12;;;;;;;0.30;0.30;;;15.80;99.90;;;;;;10523505;28;20048;-58
2024/03/01 09:09:23;;;;;;;0.15;0.15;;;15.60;99.90;;;;;;10527046;28;20847;-54
2024/03/01 09:14:30;;;;;;;0.15;0.15;;;14.80;99.90;;;;;;10507000;28;20043;-54
2024/03/01 09:19:40;;;;;;;0.10;0.10;;;15.00;99.90;;;;;;10502817;28;20097;-53
2024/03/01 09:24:43;;;;;;;0.30;0.30;;;16.00;99.90;;;;;;10515770;28;20094;-55
2024/03/01 09:29:46;;;;;;;;;;;16.40;99.90;;;;;;10506796;28;20786;-57
2024/03/01 09:34:50;;;;;;;0.10;0.10;;;16.50;99.90;;;;;;10515427;28;20010;-59
2024/03/01 09:39:52;;;;;;;0.13;0.13;;;16.30;99.90;;;;;;10512088;28;20048;-58
2024/03/01 09:45:07;;;;;;;0.10;0.10;;;16.20;99.90;;;;;;10503590;28;20530;-53
2024/03/01 09:50:25;;;;;;;0.00;0.00;;;16.40;99.90;;;;;;10510909;28;20051;-56
2024/03/01 09:55:37;;;;;;;0.10;0.10;;;16.50;99.90;;;;;;10509914;28;20052;-55
2024/03/01 10:00:48;;;;;;;0.00;0.00;;;16.10;99.90;;;;;;10499640;28;20075;-57
2024/03/01 10:06:15;;;;;;;0.00;0.00;;;16.20;99.90;;;;;;10503585;28;20085;-54
2024/03/01 10:11:26;;;;;;;2.08;1.77;;;16.20;99.90;;;;;;10485540;28;20363;-55
2024/03/01 10:16:45;;;;;;;0.10;0.10;;;16.40;99.90;;;;;;10496997;28;20078;-56
2024/03/01 10:22:03;;;;;;;0.10;0.10;;;16.60;99.90;;;;;;10505527;28;20089;-57
2024/03/01 10:27:14;;;;;;;0.10;0.10;;;16.40;99.90;;;;;;10500502;28;20052;-54
2024/03/01 10:32:25;;;;;;;0.10;0.10;;;16.80;99.90;;;;;;10498064;28;20059;-58
2024/03/01 10:37:35;;;;;;;0.10;0.10;;;16.60;99.90;;;;;;10504964;28;20056;-59
2024/03/01 10:42:41;;;;;;;0.10;0.10;;;16.60;99.90;;;;;;10500548;28;20044;-53
2024/03/01 10:47:43;;;;;;;0.20;0.20;;;16.80;99.90;;;;;;10503281;28;20205;-57
2024/03/01 10:52:57;;;;;;;0.00;0.00;;;16.70;99.90;;;;;;10498214;28;20052;-56
2024/03/01 10:58:05;;;;;;;0.20;0.20;;;16.70;99.90;;;;;;10501180;28;20601;-56
2024/03/01 11:03:19;;;;;;;1.33;1.25;;;16.70;99.90;;;;;;10508742;28;20047;-56
2024/03/01 11:08:31;;;;;;;0.08;0.08;;;16.60;99.90;;;;;;10505800;28;20075;-55
2024/03/01 11:13:37;;;;;;;0.00;0.00;;;16.70;99.90;;;;;;10501617;28;20047;-56
2024/03/01 11:18:45;;;;;;;0.10;0.10;;;17.00;99.90;;;;;;10505694;28;20063;-55
2024/03/01 11:23:54;;;;;;;0.05;0.05;;;17.00;99.90;;;;;;10495299;28;20122;-54
2024/03/01 11:28:58;;;;;;;0.10;0.10;;;16.80;99.90;;;;;;10509774;28;20059;-55
2024/03/01 11:34:06;;;;;;;0.10;0.10;;;17.00;99.90;;;;;;10507909;28;20114;-56
2024/03/01 11:39:24;;;;;;;0.08;0.08;;;17.20;99.90;;;;;;10499189;28;20108;-55
2024/03/01 11:44:33;;;;;;;0.00;0.00;;;17.10;99.90;;;;;;10508137;28;20158;-56
2024/03/01 11:49:57;;;;;;;0.10;0.10;;;17.10;99.90;;;;;;10507341;28;20052;-57
2024/03/01 11:55:10;;;;;;;0.10;0.10;;;17.00;99.90;;;;;;10510050;28;20044;-56
2024/03/01 12:00:53;;;;;;;0.10;0.10;;;16.90;99.90;;;;;;10500384;28;20056;-56
2024/03/01 12:06:04;;;;;;;0.10;0.10;;;17.10;99.90;;;;;;10505463;28;20048;-58
2024/03/01 12:11:19;;;;;;;1.77;0.55;;;17.10;99.90;;;;;;10506733;28;20882;-55
2024/03/01 12:16:34;;;;;;;3.85;0.80;;;17.10;99.90;;;;;;10500161;28;20044;-55
2024/03/01 12:22:02;;;;;;;6.82;0.90;;;17.10;99.90;;;;;;10504381;28;20056;-56
2024/03/01 12:27:11;;;;;;;5.60;1.00;;;17.10;99.90;;;;;;10495682;28;20051;-56
2024/03/01 12:32:18;;;;;;;4.10;0.70;;;16.90;99.90;;;;;;10506519;28;20072;-55
2024/03/01 12:37:38;;;;;;;4.65;0.90;;;17.10;99.90;;;;;;10505167;28;20606;-56
2024/03/01 12:43:12;;;;;;;1.48;0.80;;;17.00;99.90;;;;;;10512852;28;20040;-56
2024/03/01 12:48:26;;;;;;;1.20;0.68;;;16.90;99.90;;;;;;10510658;28;20052;-52
2024/03/01 12:54:04;;;;;;;2.38;0.55;;;17.00;99.90;;;;;;10505164;28;20039;-59
2024/03/01 12:59:32;;;;;;;1.50;0.65;;;17.00;99.90;;;;;;10495371;28;20639;-55
2024/03/01 13:04:41;;;;;;;4.07;1.10;;;17.00;99.90;;;;;;10494165;28;20117;-56
2024/03/01 13:09:46;;;;;;;2.22;0.85;;;17.00;99.90;;;;;;10513462;28;20090;-56
2024/03/01 13:15:05;;;;;;;2.00;0.80;;;17.00;99.90;;;;;;10513737;28;20059;-58
2024/03/01 13:20:27;;;;;;;3.20;1.27;;;16.70;99.90;;;;;;10509165;28;20254;-55
2024/03/01 13:25:34;;;;;;;5.63;0.90;;;16.80;99.90;;;;;;10513474;28;20043;-54
2024/03/01 13:30:40;;;;;;;3.53;1.00;;;16.90;99.90;;;;;;10510016;28;20056;-57
2024/03/01 13:35:45;;;;;;;4.40;1.08;;;17.00;99.90;;;;;;10515743;28;20051;-58
2024/03/01 13:40:50;;;;;;;3.38;1.08;;;17.00;99.90;;;;;;10510184;28;20052;-57
2024/03/01 13:46:04;;;;;;;1.88;0.85;;;16.90;99.90;;;;;;10516823;28;20048;-58
2024/03/01 13:51:07;;;;;;;3.55;0.63;;;16.80;99.90;;;;;;10508779;28;20153;-57
2024/03/01 13:56:09;;;;;;;;;;;16.70;99.90;;;;;;10505608;28;20051;-56
2024/03/01 14:01:15;;;;;;;2.63;1.17;;;16.80;99.90;;;;;;10515094;28;19930;-57
2024/03/01 14:06:18;;;;;;;6.10;1.05;;;17.00;99.90;;;;;;10512937;28;20040;-56
2024/03/01 14:11:20;;;;;;;;;;;16.80;99.90;;;;;;10509066;28;22998;-58
2024/03/01 14:16:24;;;;;;;2.45;0.90;;;16.90;99.90;;;;;;10505212;28;19924;-57
2024/03/01 14:21:28;;;;;;;1.10;0.70;;;17.20;99.90;;;;;;10509331;28;20055;-57
2024/03/01 14:26:30;;;;;;;4.75;0.52;;;17.30;99.90;;;;;;10514008;28;20836;-58
2024/03/01 14:31:34;;;;;;;2.40;0.98;;;17.20;99.90;;;;;;10512945;28;20494;-59
2024/03/01 14:36:45;;;;;;;3.70;0.70;;;17.30;99.90;;;;;;10512087;28;20768;-55
2024/03/01 14:41:48;;;;;;;1.35;0.55;;;17.30;99.90;;;;;;10513871;28;20053;-58
2024/03/01 14:46:51;;;;;;;8.68;1.55;;;17.20;99.90;;;;;;10514443;28;20048;-56
2024/03/01 14:51:54;;;;;;;4.78;1.08;;;17.50;99.90;;;;;;10514999;28;20052;-58
2024/03/01 14:56:56;;;;;;;5.28;1.25;;;17.40;99.90;;;;;;10501313;28;20052;-56
2024/03/01 15:02:00;;;;;;;5.20;1.08;;;16.40;99.90;;;;;;10510589;28;20058;-55
2024/03/01 15:07:03;;;;;;;0.10;0.10;;;12.60;99.90;;;;;;10496403;28;20108;-57
2024/03/01 15:12:08;;;;;;;;;;;10.20;99.90;;;;;;10500922;28;20054;-55
2024/03/01 15:17:18;;;;;;;0.10;0.10;;;9.50;99.90;;;;;;10505122;28;20734;-53
2024/03/01 15:22:20;;;;;;;0.10;0.10;;;9.00;99.90;;;;;;10508044;28;20691;-52
2024/03/01 15:27:25;;;;;;;0.10;0.10;;;10.10;99.90;;;;;;10507237;28;20041;-57
2024/03/01 15:32:29;;;;;;;0.10;0.10;;;10.10;99.90;;;;;;10510457;28;20525;-56
2024/03/01 15:37:31;;;;;;;0.10;0.10;;;10.40;99.90;;;;;;10505672;28;20415;-58
2024/03/01 15:42:34;;;;;;;1.67;1.48;;;13.20;99.90;;;;;;10504608;28;20052;-57
2024/03/01 15:47:37;;;;;;;0.10;0.10;;;14.80;99.90;;;;;;10503933;28;20048;-58
2024/03/01 15:52:40;;;;;;;0.10;0.10;;;15.40;99.90;;;;;;10499530;28;20054;-56
2024/03/01 15:57:42;;;;;;;0.08;0.08;;;16.30;99.90;;;;;;10497270;28;20042;-55
2024/03/01 16:02:46;;;;;;;;;;;16.70;99.90;;;;;;10491792;28;20051;-58
2024/03/01 16:07:51;;;;;;;0.10;0.10;;;17.00;99.90;;;;;;10494652;28;19924;-58
2024/03/01 16:12:54;;;;;;;0.93;0.88;;;17.00;99.90;;;;;;10495086;28;20056;-57
2024/03/01 16:18:00;;;;;;;0.10;0.10;;;16.80;99.90;;;;;;10490472;28;20799;-56
2024/03/01 16:23:02;;;;;;;0.10;0.10;;;17.20;99.90;;;;;;10494926;28;20048;-56
2024/03/01 16:28:06;;;;;;;0.00;0.00;;;17.40;99.90;;;;;;10486869;28;20048;-54
2024/03/01 16:33:16;;;;;;;0.10;0.10;;;17.50;99.90;;;;;;10500168;28;20054;-56
2024/03/01 16:38:18;;;;;;;0.22;0.22;;;17.40;99.90;;;;;;10494669;28;20062;-58
2024/03/01 16:43:34;;;;;;;0.00;0.00;;;17.60;99.90;;;;;;10499832;28;20131;-56
2024/03/01 16:48:49;;;;;;;0.63;0.63;;;17.80;99.90;;;;;;10497391;28;20064;-57
2024/03/01 16:53:51;;;;;;;0.10;0.10;;;17.80;99.90;;;;;;10489387;28;20582;-58
2024/03/01 16:58:53;;;;;;;0.08;0.08;;;17.70;99.90;;;;;;10502634;28;20071;-54
2024/03/01 17:03:57;;;;;;;0.10;0.10;;;17.80;99.90;;;;;;10489122;28;20076;-57
2024/03/01 17:08:59;;;;;;;0.10;0.10;;;18.00;99.90;;;;;;10494982;28;20066;-60
2024/03/01 17:14:02;;;;;;;0.05;0.05;;;18.00;99.90;;;;;;10492998;28;20060;-58
2024/03/01 17:19:06;;;;;;;0.03;0.03;;;17.80;99.90;;;;;;10488251;28;20052;-56
2024/03/01 17:24:08;;;;;;;0.20;0.20;;;17.80;99.90;;;;;;10502048;28;20790;-56
2024/03/01 17:29:11;;;;;;;;;;;17.70;99.90;;;;;;10506415;28;20105;-57
2024/03/01 17:34:14;;;;;;;0.10;0.10;;;17.60;99.90;;;;;;10499408;28;20028;-59
2024/03/01 17:39:16;;;;;;;1.45;1.23;;;17.70;99.90;;;;;;10510696;28;20075;-56
2024/03/01 17:44:18;;;;;;;0.32;0.32;;;17.60;99.90;;;;;;10503794;28;20756;-57
2024/03/01 17:49:28;;;;;;;0.60;0.60;;;17.60;99.90;;;;;;10504046;28;20164;-56
2024/03/01 17:54:30;;;;;;;0.70;0.70;;;17.60;99.90;;;;;;10506750;28;20773;-58
2024/03/01 17:59:32;;;;;;;0.55;0.55;;;17.30;99.90;;;;;;10518040;28;20052;-62
2024/03/01 18:04:36;;;;;;;3.70;3.03;;;17.40;99.90;;;;;;10514074;28;20040;-59
2024/03/01 18:09:38;;;;;;;2.42;1.98;;;17.30;99.90;;;;;;10514516;28;20059;-61
2024/03/01 18:14:41;;;;;;;1.27;1.13;;;17.00;99.90;;;;;;10520904;28;20043;-61
2024/03/01 18:19:52;;;;;;;0.30;0.30;;;16.20;99.90;;;;;;10522180;28;20727;-59
2024/03/01 18:24:54;;;;;;;0.45;0.45;;;16.10;99.90;;;;;;10514471;28;20039;-58
2024/03/01 18:29:56;;;;;;;0.20;0.20;;;16.20;99.90;;;;;;10509743;28;20044;-59
2024/03/01 18:34:59;;;;;;;0.00;0.00;;;15.90;99.90;;;;;;10514383;28;20055;-58
2024/03/01 18:40:06;;;;;;;1.92;1.77;;;15.90;99.90;;;;;;10526386;28;20052;-59
2024/03/01 18:45:10;;;;;;;7.88;2.08;;;15.90;99.90;;;;;;10514185;28;20175;-58
2024/03/01 18:50:13;;;;;;;12.93;3.28;;;15.90;99.90;;;;;;10521586;28;20047;-57
2024/03/01 18:55:15;;;;;;;6.95;5.40;;;16.10;99.90;;;;;;10522018;28;20055;-59
2024/03/01 19:00:18;;;;;;;3.70;3.40;;;15.90;99.90;;;;;;10503929;28;20133;-57
2024/03/01 19:05:21;;;;;;;6.38;5.78;;;15.60;99.90;;;;;;10517885;28;20087;-59
2024/03/01 19:10:24;;;;;;;9.00;6.38;;;15.50;99.90;;;;;;10520219;28;20048;-57
2024/03/01 19:15:27;;;;;;;5.07;4.00;;;15.90;99.90;;;;;;10511865;28;20056;-58
2024/03/01 19:20:31;;;;;;;2.03;1.92;;;16.30;99.90;;;;;;10513510;28;20316;-59
2024/03/01 19:25:33;;;;;;;6.47;3.63;;;16.70;99.90;;;;;;10509922;28;20054;-61
2024/03/01 19:30:35;;;;;;;17.90;7.18;;;16.70;99.90;;;;;;10510765;28;20091;-58
2024/03/01 19:35:38;;;;;;;5.47;3.53;;;16.70;99.90;;;;;;10516033;28;20081;-59
2024/03/01 19:40:40;;;;;;;5.15;4.18;;;16.80;99.90;;;;;;10512552;28;20087;-60
2024/03/01 19:45:43;;;;;;;6.70;3.38;;;16.80;99.90;;;;;;10507741;28;20055;-60
2024/03/01 19:50:46;;;;;;;3.85;3.55;;;16.90;99.90;;;;;;10511473;28;20063;-59
2024/03/01 19:55:48;;;;;;;3.78;3.47;;;16.80;99.90;;;;;;10503101;28;20110;-57
2024/03/01 20:00:53;;;;;;;3.33;2.33;;;16.90;99.90;;;;;;10511976;28;20052;-60
2024/03/01 20:05:56;;;;;;;1.60;1.50;;;17.00;99.90;;;;;;10513910;28;20142;-59
2024/03/01 20:10:58;;;;;;;1.95;1.85;;;17.00;99.90;;;;;;10505724;28;20237;-57
2024/03/01 20:16:00;;;;;;;0.38;0.38;;;17.20;99.90;;;;;;10507776;28;20051;-58
2024/03/01 20:21:04;;;;;;;0.93;0.93;;;17.20;99.90;;;;;;10502473;28;20055;-59
2024/03/01 20:26:08;;;;;;;1.48;1.38;;;17.20;99.90;;;;;;10507163;28;20155;-57
2024/03/01 20:31:10;;;;;;;1.55;0.90;;;17.40;99.90;;;;;;10500443;28;20060;-59
2024/03/01 20:36:14;;;;;;;2.58;1.05;;;17.20;99.90;;;;;;10502410;28;20085;-58
2024/03/01 20:41:16;;;;;;;0.10;0.10;;;17.20;99.90;;;;;;10502588;28;20055;-56
2024/03/01 20:46:18;;;;;;;0.85;0.85;;;17.30;99.90;;;;;;10502269;28;20059;-58
2024/03/01 20:51:21;;;;;;;0.77;0.77;;;17.10;99.90;;;;;;10499572;28;20179;-57
2024/03/01 20:56:23;;;;;;;2.03;1.55;;;17.20;99.90;;;;;;10508477;28;20082;-57
2024/03/01 21:01:25;;;;;;;4.07;1.25;;;17.00;99.90;;;;;;10510699;28;20052;-57
2024/03/01 21:06:29;;;;;;;4.25;1.08;;;16.90;99.90;;;;;;10511389;28;20170;-57
2024/03/01 21:11:31;;;;;;;0.52;0.52;;;17.10;99.90;;;;;;10509838;28;20411;-59
2024/03/01 21:16:33;;;;;;;0.38;0.38;;;17.10;99.90;;;;;;10503333;28;20048;-56
2024/03/01 21:21:37;;;;;;;0.40;0.40;;;17.10;99.90;;;;;;10503809;28;20051;-57
2024/03/01 21:26:40;;;;;;;1.60;1.35;;;17.00;99.90;;;;;;10508417;28;20048;-59
2024/03/01 21:31:42;;;;;;;0.30;0.30;;;17.10;99.90;;;;;;10500516;28;20526;-57
2024/03/01 21:36:47;;;;;;;2.35;2.20;;;16.90;99.90;;;;;;10506761;28;20138;-58
2024/03/01 21:41:49;;;;;;;2.92;0.80;;;17.10;99.90;;;;;;10512196;28;20081;-56
2024/03/01 21:46:51;;;;;;;0.47;0.47;;;17.10;99.90;;;;;;10514257;28;20060;-58
2024/03/01 21:51:55;;;;;;;0.13;0.13;;;17.10;99.90;;;;;;10500515;28;21202;-56
2024/03/01 21:56:58;;;;;;;0.93;0.93;;;17.10;99.90;;;;;;10498575;28;20161;-57
2024/03/01 22:02:00;;;;;;;;;;;17.10;99.90;;;;;;10518178;28;20170;-58
2024/03/01 22:07:03;;;;;;;2.10;1.35;;;17.00;99.90;;;;;;10509636;28;19974;-57
2024/03/01 22:12:05;;;;;;;0.70;0.70;;;16.90;99.90;;;;;;10515193;28;20068;-57
2024/03/01 22:17:08;;;;;;;2.30;1.13;;;17.00;99.90;;;;;;10512660;28;20048;-56
2024/03/01 22:22:11;;;;;;;0.10;0.10;;;16.90;99.90;;;;;;10515123;28;20081;-58
2024/03/01 22:27:16;;;;;;;1.08;0.77;;;16.80;99.90;;;;;;10511409;28;20365;-57
2024/03/01 22:32:18;;;;;;;1.98;1.85;;;16.80;99.90;;;;;;10516347;28;20055;-57
2024/03/01 22:37:22;;;;;;;0.30;0.30;;;16.80;99.90;;;;;;10517408;28;20221;-56
2024/03/01 22:42:24;;;;;;;0.43;0.43;;;16.70;99.90;;;;;;10514657;28;20128;-60
2024/03/01 22:47:26;;;;;;;1.00;0.82;;;16.70;99.90;;;;;;10510764;28;20762;-57
2024/03/01 22:52:32;;;;;;;0.50;0.50;;;16.60;99.90;;;;;;10505366;28;20155;-57
2024/03/01 22:57:38;;;;;;;0.10;0.10;;;14.60;99.90;;;;;;10503764;28;20128;-56
2024/03/01 23:02:40;;;;;;;0.10;0.10;;;11.90;99.90;;;;;;10507255;27;20132;-55
2024/03/01 23:07:43;;;;;;;0.20;0.20;;;9.50;99.90;;;;;;10502551;28;20047;-56
2024/03/01 23:12:47;;;;;;;0.20;0.20;;;10.30;99.90;;;;;;10505677;28;20059;-57
2024/03/01 23:17:50;;;;;;;0.95;0.95;;;11.60;99.90;;;;;;10507514;28;20756;-56
2024/03/01 23:22:53;;;;;;;0.40;0.40;;;12.20;99.90;;;;;;10505955;28;20098;-57
2024/03/01 23:27:55;;;;;;;0.55;0.47;;;13.20;99.90;;;;;;10510014;28;20048;-57
2024/03/01 23:32:57;;;;;;;0.50;0.43;;;13.70;99.90;;;;;;10517847;28;20052;-57
2024/03/01 23:38:01;;;;;;;0.20;0.20;;;13.90;99.90;;;;;;10511910;28;20105;-57
2024/03/01 23:43:03;;;;;;;0.40;0.40;;;12.50;99.90;;;;;;10501795;28;20056;-58
2024/03/01 23:48:08;;;;;;;0.25;0.25;;;12.40;99.90;;;;;;10507355;28;20048;-57
2024/03/01 23:53:12;;;;;;;0.20;0.20;;;13.20;99.90;;;;;;10510766;28;20119;-57
2024/03/01 23:58:14;;;;;;;0.52;0.52;;;11.80;99.90;;;;;;10507206;28;20040;-58
